Time;durP1;ratioP1;P1;durP2;ratioP2;P2;SDS_P1;SDS_P2;PMS_P1;PMS_P2;Temp;Humidity;BMP_temperature;BMP_pressure;BME280_temperature;BME280_humidity;BME280_pressure;Samples;Min_cycle;Max_cycle;Signal;HPM_P1;HPM_P2
2023/12/13 00:02:18;;;;;;;;;;;;;;;19.26;46.47;96727.57;615515;230;66720;-70
2023/12/13 00:04:45;;;;;;;;;;;;;;;19.24;46.41;96724.36;615539;230;64536;-70
2023/12/13 00:07:13;;;;;;;;;;;;;;;19.27;46.41;96723.83;615508;230;66756;-71
2023/12/13 00:09:40;;;;;;;;;;;;;;;19.25;46.47;96714.50;615568;230;66620;-71
2023/12/13 00:12:08;;;;;;;;;;;;;;;19.25;46.43;96704.64;615544;230;64620;-71
2023/12/13 00:14:35;;;;;;;;;;;;;;;19.25;46.43;96712.63;615526;230;64570;-70
2023/12/13 00:17:03;;;;;;;;;;;;;;;19.24;46.42;96696.93;615496;230;64579;-71
2023/12/13 00:19:30;;;;;;;;;;;;;;;19.25;46.41;96696.64;615521;230;62507;-71
2023/12/13 00:21:58;;;;;;;;;;;;;;;19.25;46.39;96690.52;615502;230;64622;-71
2023/12/13 00:24:25;;;;;;;;;;;;;;;19.23;46.42;96685.48;615549;230;66730;-71
2023/12/13 00:26:53;;;;;;;;;;;;;;;19.26;46.43;96686.78;615524;230;62421;-71
2023/12/13 00:29:21;;;;;;;;;;;;;;;19.24;46.39;96684.41;615493;230;64715;-71
2023/12/13 00:31:48;;;;;;;;;;;;;;;19.25;46.38;96690.52;615490;230;66653;-71
2023/12/13 00:34:16;;;;;;;;;;;;;;;19.25;46.38;96701.97;615519;230;64742;-71
2023/12/13 00:36:43;;;;;;;;;;;;;;;19.25;46.35;96712.63;616294;229;66945;-71
2023/12/13 00:39:11;;;;;;;;;;;;;;;19.26;46.39;96724.08;617450;230;66412;-71
2023/12/13 00:41:39;;;;;;;;;;;;;;;19.26;46.35;96740.89;617386;230;64565;-71
2023/12/13 00:44:06;;;;;;;;;;;;;;;19.24;46.34;96745.67;617421;230;64563;-71
2023/12/13 00:46:34;;;;;;;;;;;;;;;19.26;46.40;96721.42;617425;227;64724;-71
2023/12/13 00:49:01;;;;;;;;;;;;;;;19.26;46.40;96705.43;617464;230;62441;-71
2023/12/13 00:51:29;;;;;;;;;;;;;;;19.25;46.38;96709.97;617417;230;64212;-71
2023/12/13 00:53:56;;;;;;;;;;;;;;;19.25;46.31;96715.30;617423;230;64712;-71
2023/12/13 00:56:24;;;;;;;;;;;;;;;19.24;46.31;96721.70;617398;230;62339;-71
2023/12/13 00:58:51;;;;;;;;;;;;;;;19.24;46.27;96703.05;617432;230;64620;-71
2023/12/13 01:01:19;;;;;;;;;;;;;;;19.25;46.34;96703.84;617464;230;66720;-70
2023/12/13 01:03:46;;;;;;;;;;;;;;;19.24;46.32;96703.05;617438;230;64556;-70
2023/12/13 01:06:14;;;;;;;;;;;;;;;19.24;46.26;96716.37;617441;230;66594;-70
2023/12/13 01:08:41;;;;;;;;;;;;;;;19.26;46.30;96702.77;617368;230;67625;-70
2023/12/13 01:11:10;;;;;;;;;;;;;;;19.25;46.26;96693.19;617390;230;64549;-70
2023/12/13 01:13:38;;;;;;;;;;;;;;;19.24;46.29;96695.06;617485;230;64917;-70
2023/12/13 01:16:05;;;;;;;;;;;;;;;19.25;46.29;96678.00;617433;230;66693;-70
2023/12/13 01:18:33;;;;;;;;;;;;;;;19.24;46.26;96672.95;617434;230;64543;-70
2023/12/13 01:21:01;;;;;;;;;;;;;;;19.24;46.26;96667.63;617406;230;66697;-70
2023/12/13 01:23:28;;;;;;;;;;;;;;;19.23;46.26;96669.50;617395;230;66586;-70
2023/12/13 01:25:56;;;;;;;;;;;;;;;19.25;46.21;96664.67;617413;230;64524;-70
2023/12/13 01:28:23;;;;;;;;;;;;;;;19.22;46.27;96667.88;617496;230;67785;-70
2023/12/13 01:30:52;;;;;;;;;;;;;;;19.24;46.24;96676.41;617415;230;66733;-71
2023/12/13 01:33:20;;;;;;;;;;;;;;;19.23;46.23;96680.16;617431;230;64630;-72
2023/12/13 01:35:47;;;;;;;;;;;;;;;19.23;46.22;96674.83;617320;229;66857;-72
2023/12/13 01:38:15;;;;;;;;;;;;;;;19.23;46.27;96666.83;617437;230;66520;-72
2023/12/13 01:40:51;;;;;;;;;;;;;;;19.24;46.30;96657.77;617459;230;62479;-72
2023/12/13 01:43:28;;;;;;;;;;;;;;;19.23;46.29;96639.37;617392;230;66828;-70
2023/12/13 01:45:53;;;;;;;;;;;;;;;19.23;46.37;96634.86;617170;229;66690;-70
2023/12/13 01:48:22;;;;;;;;;;;;;;;19.24;46.31;96631.13;617369;230;64759;-70
2023/12/13 01:50:50;;;;;;;;;;;;;;;19.22;46.29;96627.13;617378;230;66731;-70
2023/12/13 01:53:18;;;;;;;;;;;;;;;19.23;46.27;96631.38;617513;230;64059;-70
2023/12/13 01:55:46;;;;;;;;;;;;;;;19.23;46.29;96618.88;617434;230;62438;-70
2023/12/13 01:58:15;;;;;;;;;;;;;;;19.23;46.31;96615.39;617448;230;64100;-70
2023/12/13 02:00:43;;;;;;;;;;;;;;;19.22;46.30;96619.13;617382;230;66732;-70
2023/12/13 02:03:11;;;;;;;;;;;;;;;19.23;46.32;96600.23;617441;230;62685;-70
2023/12/13 02:05:39;;;;;;;;;;;;;;;19.22;46.28;96614.59;617458;230;66591;-70
2023/12/13 02:08:07;;;;;;;;;;;;;;;19.22;46.26;96619.13;617461;230;64309;-70
2023/12/13 02:10:34;;;;;;;;;;;;;;;19.24;46.24;96627.66;617458;230;62422;-70
2023/12/13 02:13:02;;;;;;;;;;;;;;;19.22;46.28;96635.91;617432;230;66581;-72
2023/12/13 02:15:35;;;;;;;;;;;;;;;19.23;46.23;96640.19;617380;230;66983;-72
2023/12/13 02:17:59;;;;;;;;;;;;;;;19.20;46.24;96640.70;617322;230;64663;-72
2023/12/13 02:20:27;;;;;;;;;;;;;;;19.22;46.29;96632.45;617408;230;66577;-72
2023/12/13 02:22:54;;;;;;;;;;;;;;;19.22;46.27;96635.91;617434;230;66684;-71
2023/12/13 02:25:29;;;;;;;;;;;;;;;19.21;46.24;96636.98;617376;230;62430;-70
2023/12/13 02:27:57;;;;;;;;;;;;;;;19.23;46.26;96637.53;617078;230;65807;-70
2023/12/13 02:30:24;;;;;;;;;;;;;;;19.22;46.27;96627.13;617398;230;66615;-70
2023/12/13 02:32:52;;;;;;;;;;;;;;;19.21;46.26;96615.68;617463;230;64602;-70
2023/12/13 02:35:19;;;;;;;;;;;;;;;19.21;46.25;96610.34;617409;230;64611;-72
2023/12/13 02:37:49;;;;;;;;;;;;;;;19.21;46.22;96591.70;617382;229;67552;-72
2023/12/13 02:40:20;;;;;;;;;;;;;;;19.22;46.29;96587.17;617427;230;65599;-72
2023/12/13 02:42:47;;;;;;;;;;;;;;;19.22;46.26;96592.50;617468;230;67681;-72
2023/12/13 02:45:17;;;;;;;;;;;;;;;19.21;46.22;96580.25;617474;230;66698;-72
2023/12/13 02:47:46;;;;;;;;;;;;;;;19.21;46.28;96573.05;617429;230;64937;-71
2023/12/13 02:50:14;;;;;;;;;;;;;;;19.21;46.26;96567.73;617431;230;64495;-71
2023/12/13 02:52:42;;;;;;;;;;;;;;;19.22;46.27;96563.98;617415;229;64584;-71
2023/12/13 02:55:09;;;;;;;;;;;;;;;19.21;46.25;96565.06;617420;230;62444;-71
2023/12/13 02:57:37;;;;;;;;;;;;;;;19.22;46.27;96571.98;617464;230;64567;-71
2023/12/13 03:00:06;;;;;;;;;;;;;;;19.21;46.27;96566.94;617481;230;66878;-71
2023/12/13 03:02:34;;;;;;;;;;;;;;;19.21;46.20;96570.39;617427;230;63483;-71
2023/12/13 03:05:03;;;;;;;;;;;;;;;19.21;46.22;96565.06;617428;230;66733;-71
2023/12/13 03:07:30;;;;;;;;;;;;;;;19.22;46.25;96553.33;617414;230;64754;-70
2023/12/13 03:09:58;;;;;;;;;;;;;;;19.21;46.28;96542.96;617424;230;62566;-70
2023/12/13 03:12:25;;;;;;;;;;;;;;;19.21;46.19;96537.63;617487;230;67073;-70
2023/12/13 03:14:53;;;;;;;;;;;;;;;19.21;46.18;96546.41;617366;230;67229;-70
2023/12/13 03:17:20;;;;;;;;;;;;;;;19.20;46.16;96539.47;617396;230;62415;-70
2023/12/13 03:19:48;;;;;;;;;;;;;;;19.20;46.18;96536.81;617383;230;67403;-70
2023/12/13 03:22:15;;;;;;;;;;;;;;;19.19;46.15;96529.11;617405;230;66889;-70
2023/12/13 03:24:43;;;;;;;;;;;;;;;19.21;46.18;96526.98;617459;230;64590;-70
2023/12/13 03:27:10;;;;;;;;;;;;;;;19.20;46.12;96520.03;617437;230;67064;-70
2023/12/13 03:29:38;;;;;;;;;;;;;;;19.21;46.15;96517.11;617404;230;66858;-70
2023/12/13 03:32:05;;;;;;;;;;;;;;;19.22;46.15;96526.69;617459;230;64982;-69
2023/12/13 03:34:33;;;;;;;;;;;;;;;19.21;46.11;96537.63;617370;230;66885;-70
2023/12/13 03:37:01;;;;;;;;;;;;;;;19.21;46.10;96543.75;616380;229;66857;-70
2023/12/13 03:39:29;;;;;;;;;;;;;;;19.21;46.11;96538.42;615491;230;64527;-70
2023/12/13 03:41:57;;;;;;;;;;;;;;;19.19;46.11;96532.56;615505;230;67250;-70
2023/12/13 03:44:24;;;;;;;;;;;;;;;19.19;46.11;96535.23;615529;230;66841;-70
2023/12/13 03:46:52;;;;;;;;;;;;;;;19.19;46.14;96531.77;615482;230;63376;-70
2023/12/13 03:49:19;;;;;;;;;;;;;;;19.21;46.12;96526.98;615518;230;67976;-70
2023/12/13 03:51:47;;;;;;;;;;;;;;;19.20;46.12;96528.03;615528;230;66942;-70
2023/12/13 03:54:15;;;;;;;;;;;;;;;19.21;46.09;96516.33;615516;230;63335;-70
2023/12/13 03:56:43;;;;;;;;;;;;;;;19.22;46.11;96525.90;615522;230;65061;-70
2023/12/13 03:59:10;;;;;;;;;;;;;;;19.18;46.10;96536.30;615492;230;64919;-70
2023/12/13 04:01:38;;;;;;;;;;;;;;;19.21;46.10;96545.63;615483;230;62419;-70
2023/12/13 04:04:05;;;;;;;;;;;;;;;19.19;46.13;96535.23;615312;230;64829;-70
2023/12/13 04:06:33;;;;;;;;;;;;;;;19.21;46.15;96529.64;615257;230;64741;-70
2023/12/13 04:09:00;;;;;;;;;;;;;;;19.17;46.18;96518.71;615290;230;62508;-70
2023/12/13 04:11:28;;;;;;;;;;;;;;;19.19;46.11;96534.44;615268;230;65812;-70
2023/12/13 04:13:55;;;;;;;;;;;;;;;19.20;46.11;96533.35;615295;230;64886;-70
2023/12/13 04:16:23;;;;;;;;;;;;;;;19.19;46.12;96540.55;615214;230;64295;-69
2023/12/13 04:18:50;;;;;;;;;;;;;;;19.19;46.15;96535.23;615280;230;64869;-70
2023/12/13 04:21:18;;;;;;;;;;;;;;;19.18;46.10;96530.98;615304;230;66668;-70
2023/12/13 04:23:45;;;;;;;;;;;;;;;19.19;46.10;96515.78;615287;230;64706;-70
2023/12/13 04:26:13;;;;;;;;;;;;;;;19.18;46.14;96501.67;615291;230;67106;-70
2023/12/13 04:28:40;;;;;;;;;;;;;;;19.18;46.11;96507.00;615178;230;67163;-70
2023/12/13 04:31:08;;;;;;;;;;;;;;;19.16;46.10;96493.16;615276;230;62472;-70
2023/12/13 04:33:35;;;;;;;;;;;;;;;19.18;46.10;96488.36;615278;230;65780;-70
2023/12/13 04:36:03;;;;;;;;;;;;;;;19.17;46.11;96485.95;615243;229;67061;-70
2023/12/13 04:38:33;;;;;;;;;;;;;;;19.16;46.06;96485.16;615277;230;64585;-70
2023/12/13 04:41:00;;;;;;;;;;;;;;;19.19;46.10;96489.15;615255;230;67057;-70
2023/12/13 04:43:28;;;;;;;;;;;;;;;19.17;46.12;96492.07;615255;230;64977;-70
2023/12/13 04:45:55;;;;;;;;;;;;;;;19.18;46.10;96501.67;615299;230;62525;-70
2023/12/13 04:48:23;;;;;;;;;;;;;;;19.18;46.10;96516.84;615235;230;66962;-72
2023/12/13 04:50:50;;;;;;;;;;;;;;;19.18;46.09;96525.65;615260;230;64829;-72
2023/12/13 04:53:18;;;;;;;;;;;;;;;19.19;46.09;96521.11;615237;230;62414;-72
2023/12/13 04:55:47;;;;;;;;;;;;;;;19.19;46.12;96529.90;615262;230;65107;-72
2023/12/13 04:58:15;;;;;;;;;;;;;;;19.18;46.11;96528.31;615108;230;65093;-72
2023/12/13 05:00:42;;;;;;;;;;;;;;;19.19;46.14;96503.27;615388;230;64557;-72
2023/12/13 05:03:10;;;;;;;;;;;;;;;19.19;46.15;96481.16;615480;230;67224;-72
2023/12/13 05:05:37;;;;;;;;;;;;;;;19.17;46.14;96468.09;615503;230;66903;-72
2023/12/13 05:08:09;;;;;;;;;;;;;;;19.18;46.10;96469.71;615518;230;64531;-73
2023/12/13 05:10:34;;;;;;;;;;;;;;;19.18;46.07;96474.22;615246;230;66967;-72
2023/12/13 05:13:02;;;;;;;;;;;;;;;19.18;46.11;96459.05;615281;230;67155;-72
2023/12/13 05:15:29;;;;;;;;;;;;;;;19.17;46.11;96468.09;615263;230;62049;-72
2023/12/13 05:17:57;;;;;;;;;;;;;;;19.17;46.12;96473.42;615210;230;66825;-71
2023/12/13 05:20:24;;;;;;;;;;;;;;;19.16;46.13;96468.39;615281;230;66882;-71
2023/12/13 05:22:52;;;;;;;;;;;;;;;19.16;46.10;96477.17;615151;230;64405;-71
2023/12/13 05:25:20;;;;;;;;;;;;;;;19.17;46.13;96475.30;615284;230;67059;-71
2023/12/13 05:27:47;;;;;;;;;;;;;;;19.17;46.06;96477.96;615251;230;64895;-71
2023/12/13 05:30:17;;;;;;;;;;;;;;;19.15;46.08;96467.59;615277;230;62656;-71
2023/12/13 05:32:44;;;;;;;;;;;;;;;19.15;46.09;96464.93;615257;230;66873;-71
2023/12/13 05:35:11;;;;;;;;;;;;;;;19.18;46.09;96479.55;615219;230;66724;-71
2023/12/13 05:37:39;;;;;;;;;;;;;;;19.14;46.07;96481.17;615221;229;65652;-71
2023/12/13 05:40:08;;;;;;;;;;;;;;;19.15;46.06;96478.25;615297;230;66976;-71
2023/12/13 05:42:36;;;;;;;;;;;;;;;19.16;46.11;96471.05;615246;230;67251;-71
2023/12/13 05:45:03;;;;;;;;;;;;;;;19.16;46.07;96474.51;615299;230;64632;-71
2023/12/13 05:47:31;;;;;;;;;;;;;;;19.17;46.08;96468.09;615245;230;66826;-71
2023/12/13 05:49:58;;;;;;;;;;;;;;;19.17;46.11;96462.77;615239;230;66970;-71
2023/12/13 05:52:26;;;;;;;;;;;;;;;19.14;46.09;96450.00;615260;230;65393;-71
2023/12/13 05:54:55;;;;;;;;;;;;;;;19.17;46.08;96452.11;615263;230;67054;-71
2023/12/13 05:57:22;;;;;;;;;;;;;;;19.15;46.12;96442.80;615254;230;66651;-71
2023/12/13 05:59:50;;;;;;;;;;;;;;;19.18;46.12;96428.94;615298;230;64644;-71
2023/12/13 06:02:17;;;;;;;;;;;;;;;19.16;46.13;96415.91;615269;230;66756;-71
2023/12/13 06:04:45;;;;;;;;;;;;;;;19.16;46.13;96413.24;615241;230;67541;-71
2023/12/13 06:07:12;;;;;;;;;;;;;;;19.14;46.09;96410.05;615257;230;64587;-71
2023/12/13 06:09:42;;;;;;;;;;;;;;;19.15;46.14;96411.66;615269;230;67057;-71
2023/12/13 06:12:09;;;;;;;;;;;;;;;19.14;46.08;96404.72;615119;230;65942;-71
2023/12/13 06:14:37;;;;;;;;;;;;;;;19.15;46.14;96402.84;615298;230;62273;-71
2023/12/13 06:17:04;;;;;;;;;;;;;;;19.16;46.13;96399.13;615207;230;67668;-71
2023/12/13 06:19:32;;;;;;;;;;;;;;;19.16;46.15;96401.80;615263;230;66590;-70
2023/12/13 06:22:00;;;;;;;;;;;;;;;19.17;46.13;96406.05;615243;230;64546;-71
2023/12/13 06:24:27;;;;;;;;;;;;;;;19.15;46.15;96397.52;615269;230;64913;-71
2023/12/13 06:26:55;;;;;;;;;;;;;;;19.15;46.16;96397.52;615266;230;65692;-71
2023/12/13 06:29:22;;;;;;;;;;;;;;;19.16;46.14;96391.14;615540;227;65777;-71
2023/12/13 06:31:50;;;;;;;;;;;;;;;19.16;46.19;96396.47;618974;227;67329;-71
2023/12/13 06:34:17;;;;;;;;;;;;;;;19.15;46.14;96395.68;622431;227;67104;-71
2023/12/13 06:36:45;;;;;;;;;;;;;;;19.14;46.12;96394.06;617303;228;63400;-71
2023/12/13 06:39:13;;;;;;;;;;;;;;;19.14;46.15;96387.95;617614;229;64884;-71
2023/12/13 06:41:40;;;;;;;;;;;;;;;19.14;46.18;96383.41;617845;229;66918;-71
2023/12/13 06:44:08;;;;;;;;;;;;;;;19.14;46.18;96382.63;617972;229;65823;-71
2023/12/13 06:46:35;;;;;;;;;;;;;;;19.16;46.17;96394.59;617927;229;68283;-71
2023/12/13 06:49:04;;;;;;;;;;;;;;;19.15;46.16;96382.36;620317;225;66627;-71
2023/12/13 06:51:31;;;;;;;;;;;;;;;19.14;46.22;96375.42;625189;227;64606;-71
2023/12/13 06:53:59;;;;;;;;;;;;;;;19.16;46.24;96377.83;625009;227;67119;-71
2023/12/13 06:56:26;;;;;;;;;;;;;;;19.15;46.25;96387.69;625137;227;67959;-71
2023/12/13 06:58:54;;;;;;;;;;;;;;;19.16;46.17;96391.94;625057;227;64529;-71
2023/12/13 07:01:22;;;;;;;;;;;;;;;19.14;46.18;96388.74;625001;227;66817;-71
2023/12/13 07:03:49;;;;;;;;;;;;;;;19.14;46.22;96378.09;625311;227;64421;-71
2023/12/13 07:06:18;;;;;;;;;;;;;;;19.15;46.20;96392.20;625351;227;64547;-69
2023/12/13 07:08:46;;;;;;;;;;;;;;;19.14;46.23;96390.61;625379;227;64798;-69
2023/12/13 07:11:13;;;;;;;;;;;;;;;19.15;46.24;96377.03;624713;227;64812;-70
2023/12/13 07:13:41;;;;;;;;;;;;;;;19.15;46.25;96358.39;620451;227;64616;-70
2023/12/13 07:16:08;;;;;;;;;;;;;;;19.12;48.70;96350.92;617874;229;65449;-70
2023/12/13 07:18:36;;;;;;;;;;;;;;;19.10;46.04;96329.12;617664;229;65682;-69
2023/12/13 07:21:03;;;;;;;;;;;;;;;19.12;45.83;96326.16;617578;229;64628;-70
2023/12/13 07:23:31;;;;;;;;;;;;;;;19.11;45.74;96314.72;617806;229;64593;-70
2023/12/13 07:25:59;;;;;;;;;;;;;;;19.14;45.70;96319.48;617730;229;66896;-70
2023/12/13 07:28:26;;;;;;;;;;;;;;;19.14;45.70;96322.16;617932;229;64635;-70
2023/12/13 07:30:55;;;;;;;;;;;;;;;19.15;45.73;96321.10;617814;229;67048;-70
2023/12/13 07:33:23;;;;;;;;;;;;;;;19.15;45.72;96329.09;617818;229;64811;-69
2023/12/13 07:35:50;;;;;;;;;;;;;;;19.13;45.74;96319.78;618058;227;64537;-70
2023/12/13 07:38:18;;;;;;;;;;;;;;;19.14;45.74;96308.05;623674;227;67039;-73
2023/12/13 07:40:47;;;;;;;;;;;;;;;19.17;45.75;96318.14;623822;227;66896;-73
2023/12/13 07:43:15;;;;;;;;;;;;;;;19.13;45.72;96298.48;623831;227;62505;-73
2023/12/13 07:45:43;;;;;;;;;;;;;;;19.15;45.73;96307.78;623678;227;66886;-72
2023/12/13 07:48:10;;;;;;;;;;;;;;;19.16;45.75;96300.58;623749;227;66810;-73
2023/12/13 07:50:38;;;;;;;;;;;;;;;19.19;45.76;96300.03;623642;227;62523;-72
2023/12/13 07:53:05;;;;;;;;;;;;;;;19.18;45.85;96296.58;623798;227;64825;-73
2023/12/13 07:55:33;;;;;;;;;;;;;;;19.17;45.86;96270.99;623752;227;64915;-74
2023/12/13 07:58:00;;;;;;;;;;;;;;;19.19;45.91;96268.06;623737;227;62424;-73
2023/12/13 08:00:29;;;;;;;;;;;;;;;19.19;45.91;96262.73;623743;227;64958;-72
2023/12/13 08:02:56;;;;;;;;;;;;;;;19.21;45.94;96268.59;623817;227;66630;-72
2023/12/13 08:05:24;;;;;;;;;;;;;;;19.19;45.95;96271.52;623807;227;64529;-73
2023/12/13 08:07:51;;;;;;;;;;;;;;;19.20;45.94;96272.31;623689;227;68026;-73
2023/12/13 08:10:19;;;;;;;;;;;;;;;19.19;45.99;96268.06;623760;227;68127;-73
2023/12/13 08:12:46;;;;;;;;;;;;;;;19.20;46.02;96273.09;623764;227;64604;-73
2023/12/13 08:15:14;;;;;;;;;;;;;;;19.21;45.98;96260.60;623719;227;67114;-73
2023/12/13 08:17:42;;;;;;;;;;;;;;;19.21;45.98;96272.05;623750;227;66896;-72
2023/12/13 08:20:10;;;;;;;;;;;;;;;19.22;45.96;96273.63;623716;227;64557;-73
2023/12/13 08:22:39;;;;;;;;;;;;;;;19.19;45.94;96266.19;623688;227;65102;-72
2023/12/13 08:25:06;;;;;;;;;;;;;;;19.21;45.99;96268.59;623738;227;66697;-73
2023/12/13 08:27:34;;;;;;;;;;;;;;;19.22;45.96;96257.64;623766;227;64477;-73
2023/12/13 08:30:01;;;;;;;;;;;;;;;19.21;45.93;96256.06;623708;227;66773;-73
2023/12/13 08:32:29;;;;;;;;;;;;;;;19.21;45.95;96256.06;623738;227;64785;-73
2023/12/13 08:34:57;;;;;;;;;;;;;;;19.24;45.98;96254.72;623666;227;64543;-73
2023/12/13 08:37:24;;;;;;;;;;;;;;;19.22;46.01;96246.20;623698;227;66200;-72
2023/12/13 08:39:52;;;;;;;;;;;;;;;19.21;45.99;96240.08;623557;227;67026;-73
2023/12/13 08:42:19;;;;;;;;;;;;;;;19.24;46.01;96238.73;623598;227;62492;-73
2023/12/13 08:44:47;;;;;;;;;;;;;;;19.22;46.01;96240.88;623709;227;67192;-73
2023/12/13 08:47:14;;;;;;;;;;;;;;;19.25;46.03;96242.98;623756;227;66921;-73
2023/12/13 08:49:44;;;;;;;;;;;;;;;19.24;46.04;96239.52;623639;227;65762;-76
2023/12/13 08:52:11;;;;;;;;;;;;;;;19.24;46.02;96231.53;623518;227;67067;-72
2023/12/13 08:54:39;;;;;;;;;;;;;;;19.22;46.03;96225.68;623801;227;65800;-73
2023/12/13 08:57:06;;;;;;;;;;;;;;;19.23;46.02;96216.63;623781;227;64318;-73
2023/12/13 08:59:34;;;;;;;;;;;;;;;19.23;46.05;96203.31;623717;227;64867;-74
2023/12/13 09:02:01;;;;;;;;;;;;;;;19.25;46.06;96198.48;623757;227;66974;-72
2023/12/13 09:04:29;;;;;;;;;;;;;;;19.25;46.05;96195.81;623688;227;64520;-75
2023/12/13 09:06:56;;;;;;;;;;;;;;;19.26;46.06;96199.27;623779;227;67031;-73
2023/12/13 09:09:24;;;;;;;;;;;;;;;19.23;46.06;96174.02;623792;227;65619;-72
2023/12/13 09:11:52;;;;;;;;;;;;;;;19.23;46.06;96179.34;623676;227;62505;-71
2023/12/13 09:14:20;;;;;;;;;;;;;;;19.24;46.08;96172.14;623743;227;67077;-72
2023/12/13 09:16:48;;;;;;;;;;;;;;;19.26;46.43;96168.13;623787;227;64533;-73
2023/12/13 09:19:15;;;;;;;;;;;;;;;19.25;46.08;96158.52;623714;227;62454;-74
2023/12/13 09:21:43;;;;;;;;;;;;;;;19.24;46.24;96153.49;623842;227;67032;-74
2023/12/13 09:24:11;;;;;;;;;;;;;;;19.26;46.18;96160.13;623773;227;65131;-75
2023/12/13 09:26:39;;;;;;;;;;;;;;;19.23;46.22;96152.70;623660;227;65500;-74
2023/12/13 09:29:08;;;;;;;;;;;;;;;19.25;46.26;96144.41;623781;227;67053;-76
2023/12/13 09:31:35;;;;;;;;;;;;;;;19.27;46.28;96155.59;623823;227;64790;-76
2023/12/13 09:34:03;;;;;;;;;;;;;;;19.28;46.28;96155.30;623690;227;62419;-74
2023/12/13 09:36:30;;;;;;;;;;;;;;;19.26;46.29;96168.13;623772;227;64863;-75
2023/12/13 09:38:58;;;;;;;;;;;;;;;19.28;46.32;96170.48;623775;227;66710;-71
2023/12/13 09:41:26;;;;;;;;;;;;;;;19.28;46.34;96154.50;623784;227;64540;-74
2023/12/13 09:43:55;;;;;;;;;;;;;;;19.27;46.41;96145.72;623775;227;66885;-73
2023/12/13 09:46:23;;;;;;;;;;;;;;;19.30;46.42;96153.16;623732;227;66964;-74
2023/12/13 09:48:51;;;;;;;;;;;;;;;19.29;46.46;96146.25;623816;227;64695;-76
2023/12/13 09:51:19;;;;;;;;;;;;;;;19.29;46.55;96130.27;623776;227;67360;-72
2023/12/13 09:53:49;;;;;;;;;;;;;;;19.32;46.58;96133.45;623688;227;65144;-72
2023/12/13 09:56:16;;;;;;;;;;;;;;;19.29;46.58;96121.48;623495;227;64654;-73
2023/12/13 09:58:44;;;;;;;;;;;;;;;19.29;46.63;96124.14;623761;227;64894;-72
2023/12/13 10:01:14;;;;;;;;;;;;;;;19.29;46.63;96129.48;623767;227;64734;-73
2023/12/13 10:03:41;;;;;;;;;;;;;;;19.28;46.66;96127.87;623807;227;62531;-73
2023/12/13 10:06:09;;;;;;;;;;;;;;;19.30;46.68;96137.17;623720;227;64605;-72
2023/12/13 10:08:36;;;;;;;;;;;;;;;19.30;46.72;96123.84;623726;227;64041;-72
2023/12/13 10:11:07;;;;;;;;;;;;;;;19.29;46.82;96126.81;623715;227;64819;-74
2023/12/13 10:13:34;;;;;;;;;;;;;;;19.29;46.89;96119.61;623829;227;66716;-73
2023/12/13 10:16:10;;;;;;;;;;;;;;;19.30;46.89;96131.84;623728;227;66694;-72
2023/12/13 10:18:40;;;;;;;;;;;;;;;19.29;46.82;96127.60;623753;227;64796;-71
2023/12/13 10:21:08;;;;;;;;;;;;;;;19.31;46.79;96137.95;623736;227;66761;-71
2023/12/13 10:23:35;;;;;;;;;;;;;;;19.29;46.78;96146.25;623756;227;64759;-73
2023/12/13 10:26:06;;;;;;;;;;;;;;;19.29;46.75;96135.59;623767;227;62455;-73
2023/12/13 10:28:37;;;;;;;;;;;;;;;19.32;46.73;96126.25;623825;227;64591;-69
2023/12/13 10:31:04;;;;;;;;;;;;;;;19.32;46.73;96128.13;623730;227;64876;-70
2023/12/13 10:33:32;;;;;;;;;;;;;;;19.28;46.79;96114.55;623766;227;64570;-72
2023/12/13 10:35:59;;;;;;;;;;;;;;;19.32;46.90;96112.92;623693;227;67065;-72
2023/12/13 10:38:27;;;;;;;;;;;;;;;19.30;47.02;96107.87;623738;227;67039;-71
2023/12/13 10:40:54;;;;;;;;;;;;;;;19.33;47.10;96111.05;623788;227;62529;-71
2023/12/13 10:43:24;;;;;;;;;;;;;;;19.32;47.12;96104.94;623737;227;64692;-70
2023/12/13 10:45:52;;;;;;;;;;;;;;;19.34;47.11;96109.96;623708;227;64763;-70
2023/12/13 10:48:21;;;;;;;;;;;;;;;19.34;47.10;96105.42;623666;227;63443;-71
2023/12/13 10:50:49;;;;;;;;;;;;;;;19.33;47.09;96103.84;623747;227;64840;-70
2023/12/13 10:53:17;;;;;;;;;;;;;;;19.34;47.03;96102.76;623761;227;66882;-70
2023/12/13 10:55:46;;;;;;;;;;;;;;;19.33;47.04;96098.52;623824;227;64714;-71
2023/12/13 10:58:14;;;;;;;;;;;;;;;19.35;47.02;96090.25;623620;227;64687;-66
2023/12/13 11:00:43;;;;;;;;;;;;;;;19.36;47.01;96081.17;623778;227;67202;-72
2023/12/13 11:03:12;;;;;;;;;;;;;;;19.38;47.05;96087.02;623758;227;64740;-71
2023/12/13 11:05:40;;;;;;;;;;;;;;;19.34;47.06;96076.12;623571;227;67314;-72
2023/12/13 11:08:16;;;;;;;;;;;;;;;19.37;47.09;96072.91;623807;227;66906;-72
2023/12/13 11:11:00;;;;;;;;;;;;;;;19.37;47.16;96082.75;623577;227;64359;-73
2023/12/13 11:13:28;;;;;;;;;;;;;;;19.37;47.17;96082.75;623717;226;67085;-71
2023/12/13 11:15:55;;;;;;;;;;;;;;;19.37;47.16;96069.44;623724;227;66933;-71
2023/12/13 11:18:24;;;;;;;;;;;;;;;19.36;47.14;96054.53;623666;227;64615;-72
2023/12/13 11:20:55;;;;;;;;;;;;;;;19.36;47.16;96054.53;623612;226;67331;-72
2023/12/13 11:23:26;;;;;;;;;;;;;;;19.33;47.14;96047.90;623673;227;68627;-72
2023/12/13 11:25:56;;;;;;;;;;;;;;;19.36;47.12;96054.53;623590;227;65112;-69
2023/12/13 11:28:25;;;;;;;;;;;;;;;19.36;47.12;96046.55;623643;227;68865;-70
2023/12/13 11:30:55;;;;;;;;;;;;;;;19.37;47.11;96046.27;623648;227;66686;-72
2023/12/13 11:33:23;;;;;;;;;;;;;;;19.36;47.10;96055.32;623664;227;64715;-72
2023/12/13 11:35:51;;;;;;;;;;;;;;;19.34;47.13;96040.70;623536;227;66635;-72
2023/12/13 11:38:18;;;;;;;;;;;;;;;19.37;47.14;96054.27;623713;227;68361;-73
2023/12/13 11:40:46;;;;;;;;;;;;;;;19.37;47.13;96058.78;623608;227;64646;-72
2023/12/13 11:43:14;;;;;;;;;;;;;;;19.37;47.14;96062.26;623654;227;66494;-70
2023/12/13 11:45:49;;;;;;;;;;;;;;;19.38;47.14;96049.73;623649;227;68286;-73
2023/12/13 11:48:17;;;;;;;;;;;;;;;19.38;47.19;96055.84;623552;227;64859;-71
2023/12/13 11:50:45;;;;;;;;;;;;;;;19.35;47.21;96037.77;623685;227;68629;-71
2023/12/13 11:53:12;;;;;;;;;;;;;;;19.36;47.30;96031.34;623594;227;66691;-71
2023/12/13 11:55:40;;;;;;;;;;;;;;;19.38;47.35;96047.06;623517;227;62525;-71
2023/12/13 11:58:09;;;;;;;;;;;;;;;19.39;47.42;96032.66;623455;227;66433;-71
2023/12/13 12:00:36;;;;;;;;;;;;;;;19.37;47.50;96024.14;623574;227;66436;-72
2023/12/13 12:03:04;;;;;;;;;;;;;;;19.39;47.49;96020.12;623613;227;62555;-71
2023/12/13 12:05:31;;;;;;;;;;;;;;;19.37;47.57;96016.97;623598;227;66829;-71
2023/12/13 12:08:01;;;;;;;;;;;;;;;19.36;47.63;96014.58;623561;227;67693;-71
2023/12/13 12:10:33;;;;;;;;;;;;;;;19.40;47.61;96018.27;623540;227;64567;-71
2023/12/13 12:13:01;;;;;;;;;;;;;;;19.39;47.59;96022.78;623670;227;68346;-72
2023/12/13 12:15:29;;;;;;;;;;;;;;;19.39;47.53;96019.33;623576;227;66783;-71
2023/12/13 12:17:57;;;;;;;;;;;;;;;19.39;47.49;96016.66;623958;226;64613;-71
2023/12/13 12:20:26;;;;;;;;;;;;;;;19.39;47.46;96008.67;625860;226;66708;-71
2023/12/13 12:22:55;;;;;;;;;;;;;;;19.39;47.45;95996.14;625685;225;68524;-69
2023/12/13 12:25:25;;;;;;;;;;;;;;;19.38;47.42;95993.78;627880;225;64493;-70
2023/12/13 12:27:53;;;;;;;;;;;;;;;19.40;47.43;95988.97;627792;226;67373;-69
2023/12/13 12:30:22;;;;;;;;;;;;;;;19.40;47.42;95992.41;627900;226;68782;-68
2023/12/13 12:32:49;;;;;;;;;;;;;;;19.39;47.44;95998.02;627891;226;62492;-69
2023/12/13 12:35:17;;;;;;;;;;;;;;;19.42;47.45;96000.11;627833;226;68969;-70
2023/12/13 12:37:45;;;;;;;;;;;;;;;19.41;47.43;96009.98;622377;226;68621;-70
2023/12/13 12:40:12;;;;;;;;;;;;;;;19.41;47.41;96003.86;621281;228;64981;-70
2023/12/13 12:42:42;;;;;;;;;;;;;;;19.40;47.42;95994.30;621384;228;66459;-71
2023/12/13 12:45:09;;;;;;;;;;;;;;;19.40;47.42;95991.63;621314;228;66574;-69
2023/12/13 12:47:36;;;;;;;;;;;;;;;19.41;47.44;95979.88;621379;228;62615;-69
2023/12/13 12:50:04;;;;;;;;;;;;;;;19.41;47.54;95982.55;621350;228;66604;-70
2023/12/13 12:52:32;;;;;;;;;;;;;;;19.40;47.60;95981.76;621314;228;68727;-69